Time;durP1;ratioP1;P1;durP2;ratioP2;P2;SDS_P1;SDS_P2;PMS_P1;PMS_P2;Temp;Humidity;BMP_temperature;BMP_pressure;BME280_temperature;BME280_humidity;BME280_pressure;Samples;Min_cycle;Max_cycle;Signal;HPM_P1;HPM_P2
2021/10/28 00:13:38;;;;;;;18.53;7.80;;;;;;;10.90;100.00;96808.63;5019029;28;20209;-69
2021/10/28 00:16:12;;;;;;;18.43;7.60;;;;;;;10.79;100.00;96816.84;5018180;28;20283;-69
2021/10/28 00:18:41;;;;;;;18.97;7.87;;;;;;;11.01;100.00;96809.09;5019050;28;20198;-69
2021/10/28 00:21:09;;;;;;;19.33;7.80;;;;;;;11.18;100.00;96805.44;5019093;28;20352;-69
2021/10/28 00:23:46;;;;;;;18.10;6.67;;;;;;;11.32;100.00;96803.97;5019115;28;20201;-69
2021/10/28 00:26:13;;;;;;;18.80;8.40;;;;;;;11.20;100.00;96803.47;5017556;28;20297;-69
2021/10/28 00:28:41;;;;;;;21.17;7.63;;;;;;;11.29;100.00;96807.75;5018677;28;20202;-69
2021/10/28 00:31:08;;;;;;;18.30;6.63;;;;;;;11.32;100.00;96804.78;5018901;28;20603;-69
2021/10/28 00:33:36;;;;;;;20.23;8.37;;;;;;;11.20;100.00;96802.63;5018973;28;20206;-69
2021/10/28 00:36:05;;;;;;;23.73;6.70;;;;;;;11.25;100.00;96800.34;5016881;28;20229;-69
2021/10/28 00:38:33;;;;;;;19.77;7.87;;;;;;;11.19;100.00;96808.94;5018500;28;20216;-69
2021/10/28 00:41:03;;;;;;;18.13;6.80;;;;;;;11.40;100.00;96794.19;5018354;28;20202;-69
2021/10/28 00:43:30;;;;;;;18.13;7.73;;;;;;;11.04;100.00;96792.13;5018070;28;20205;-69
2021/10/28 00:45:57;;;;;;;25.77;7.60;;;;;;;11.04;100.00;96792.94;5017333;28;20266;-69
2021/10/28 00:48:23;;;;;;;27.73;7.13;;;;;;;11.12;100.00;96803.47;5019824;28;20209;-69
2021/10/28 00:50:53;;;;;;;16.83;7.03;;;;;;;11.35;100.00;96796.50;5015804;28;20206;-69
2021/10/28 00:53:19;;;;;;;13.27;7.63;;;;;;;10.95;100.00;96804.47;5018195;28;20201;-69
2021/10/28 00:55:46;;;;;;;23.33;8.70;;;;;;;11.15;100.00;96789.97;5017845;28;20208;-69
2021/10/28 00:58:20;;;;;;;20.33;8.00;;;;;;;11.36;99.95;96792.88;5018890;28;20206;-69
2021/10/28 01:00:46;;;;;;;19.13;7.37;;;;;;;11.06;100.00;96798.03;5016250;28;20244;-69
2021/10/28 01:03:13;;;;;;;16.87;8.47;;;;;;;10.98;100.00;96796.25;5019681;28;20213;-69
2021/10/28 01:05:39;;;;;;;29.07;10.13;;;;;;;10.96;100.00;96800.06;5016716;28;20701;-69
2021/10/28 01:08:06;;;;;;;22.00;8.63;;;;;;;10.93;100.00;96802.19;5018063;28;20678;-69
2021/10/28 01:10:32;;;;;;;20.83;7.23;;;;;;;10.84;100.00;96803.19;5017816;28;20208;-69
2021/10/28 01:12:58;;;;;;;17.37;8.10;;;;;;;10.85;100.00;96799.56;5017874;28;20674;-69
2021/10/28 01:15:26;;;;;;;39.37;8.40;;;;;;;10.86;100.00;96798.53;5017586;28;20777;-69
2021/10/28 01:17:53;;;;;;;18.00;6.53;;;;;;;10.73;100.00;96806.97;5017926;28;20965;-69
2021/10/28 01:20:21;;;;;;;25.57;7.90;;;;;;;10.88;100.00;96794.75;5017947;28;20745;-69
2021/10/28 01:22:47;;;;;;;16.43;7.47;;;;;;;10.56;100.00;96796.56;5017174;28;20992;-69
2021/10/28 01:25:14;;;;;;;21.07;7.80;;;;;;;10.61;100.00;96803.00;5017667;28;20701;-69
2021/10/28 01:27:40;;;;;;;19.07;8.13;;;;;;;10.56;100.00;96797.38;5016601;28;20236;-69
2021/10/28 01:30:08;;;;;;;20.97;7.40;;;;;;;10.77;100.00;96800.38;5018174;28;20202;-69
2021/10/28 01:32:35;;;;;;;19.10;7.33;;;;;;;10.64;100.00;96796.56;5017294;28;20226;-69
2021/10/28 01:35:02;;;;;;;24.70;8.17;;;;;;;10.76;99.91;96792.63;5017740;28;20214;-69
2021/10/28 01:37:30;;;;;;;19.17;7.67;;;;;;;10.99;99.87;96781.25;5016622;28;20228;-69
2021/10/28 01:39:56;;;;;;;19.23;7.97;;;;;;;10.60;100.00;96789.97;5017720;28;20208;-69
2021/10/28 01:42:23;;;;;;;17.80;7.63;;;;;;;10.73;99.54;96788.53;5017149;28;20209;-69
2021/10/28 01:44:49;;;;;;;24.37;10.57;;;;;;;10.69;99.71;96789.00;5017972;28;20206;-69
2021/10/28 01:47:16;;;;;;;23.50;7.17;;;;;;;10.46;100.00;96785.34;5015311;28;20236;-69
2021/10/28 01:49:42;;;;;;;23.10;7.60;;;;;;;10.41;100.00;96793.75;5017336;28;20241;-69
2021/10/28 01:52:12;;;;;;;25.43;8.20;;;;;;;10.74;100.00;96786.69;5017177;28;20701;-69
2021/10/28 01:54:41;;;;;;;19.23;7.13;;;;;;;10.85;100.00;96789.00;5017515;28;20241;-69
2021/10/28 01:57:16;;;;;;;23.07;7.30;;;;;;;10.99;99.66;96776.78;5016499;28;20633;-69
2021/10/28 01:59:43;;;;;;;22.57;7.40;;;;;;;10.70;99.46;96782.75;5017685;28;20242;-69
2021/10/28 02:02:09;;;;;;;27.63;9.20;;;;;;;10.67;99.69;96788.34;5013824;28;20217;-69
2021/10/28 02:04:35;;;;;;;15.83;7.00;;;;;;;10.68;99.60;96787.34;5017109;28;20205;-69
2021/10/28 02:07:02;;;;;;;22.23;8.03;;;;;;;10.64;99.78;96791.28;5016679;28;20241;-69
2021/10/28 02:09:28;;;;;;;19.77;7.17;;;;;;;10.77;99.45;96779.28;5017001;28;20226;-69
2021/10/28 02:11:56;;;;;;;14.33;7.43;;;;;;;10.95;99.78;96775.47;5017229;28;20297;-69
2021/10/28 02:14:23;;;;;;;16.43;8.17;;;;;;;10.80;99.07;96776.31;5016776;28;20206;-69
2021/10/28 02:16:49;;;;;;;22.73;8.20;;;;;;;10.72;99.60;96784.22;5016274;28;21178;-69
2021/10/28 02:19:15;;;;;;;21.53;6.17;;;;;;;10.74;99.24;96789.31;5017005;28;20201;-69
2021/10/28 02:21:42;;;;;;;17.83;7.23;;;;;;;10.72;99.47;96780.78;5016989;28;20213;-69
2021/10/28 02:24:09;;;;;;;18.73;8.43;;;;;;;10.71;99.47;96787.03;5016946;28;20208;-69
2021/10/28 02:26:35;;;;;;;16.73;6.20;;;;;;;10.64;99.80;96783.38;5015947;28;20221;-69
2021/10/28 02:29:03;;;;;;;17.93;6.37;;;;;;;10.87;100.00;96784.38;5016745;28;20209;-69
2021/10/28 02:31:31;;;;;;;16.93;7.73;;;;;;;10.71;99.42;96787.84;5017365;28;20201;-69
2021/10/28 02:33:58;;;;;;;20.80;7.17;;;;;;;10.72;99.14;96783.41;5016347;28;20292;-69
2021/10/28 02:36:24;;;;;;;18.83;7.73;;;;;;;10.58;99.95;96784.06;5016502;28;20227;-69
2021/10/28 02:38:51;;;;;;;16.23;6.60;;;;;;;10.55;99.98;96787.00;5017181;28;20297;-69
2021/10/28 02:41:17;;;;;;;18.40;7.90;;;;;;;10.64;99.56;96781.59;5017119;28;20206;-69
2021/10/28 02:43:44;;;;;;;13.23;5.63;;;;;;;10.62;99.96;96780.13;5016556;28;20214;-69
2021/10/28 02:46:12;;;;;;;22.20;8.33;;;;;;;10.90;99.61;96776.16;5016057;28;20753;-69
2021/10/28 02:48:38;;;;;;;21.50;8.07;;;;;;;10.73;99.85;96772.69;5016767;28;20210;-70
2021/10/28 02:51:05;;;;;;;23.13;8.77;;;;;;;10.77;99.43;96775.81;5016520;28;20202;-69
2021/10/28 02:53:31;;;;;;;17.27;6.50;;;;;;;10.87;98.98;96771.19;5016932;28;20202;-69
2021/10/28 02:55:58;;;;;;;20.37;8.80;;;;;;;10.82;99.23;96770.88;5012846;28;20209;-69
2021/10/28 02:58:24;;;;;;;20.63;8.37;;;;;;;10.82;99.04;96778.78;5017947;28;20193;-69
2021/10/28 03:00:51;;;;;;;19.60;7.93;;;;;;;10.68;100.00;96771.53;5018658;28;20217;-69
2021/10/28 03:03:19;;;;;;;22.80;7.87;;;;;;;11.01;99.39;96779.28;5020053;28;20209;-69
2021/10/28 03:05:45;;;;;;;19.93;7.10;;;;;;;10.70;99.51;96780.09;5018955;28;20210;-69
2021/10/28 03:08:12;;;;;;;20.40;7.70;;;;;;;10.81;99.40;96771.88;5020249;28;20387;-69
2021/10/28 03:10:39;;;;;;;16.40;7.53;;;;;;;10.72;99.47;96778.97;5021182;28;20201;-69
2021/10/28 03:13:05;;;;;;;36.27;7.40;;;;;;;10.78;99.22;96777.47;5019755;28;20294;-69
2021/10/28 03:15:35;;;;;;;29.97;8.20;;;;;;;10.68;99.70;96775.00;5019569;28;21115;-69
2021/10/28 03:19:06;;;;;;;14.30;6.47;;;;;;;10.70;99.52;96775.66;5020709;28;20229;-69
2021/10/28 03:26:38;;;;;;;14.80;6.97;;;;;;;10.61;99.31;96775.81;4945177;28;20637;-69
2021/10/28 03:29:04;;;;;;;13.57;6.07;;;;;;;10.67;98.94;96777.81;5019736;28;20225;-69
2021/10/28 03:31:31;;;;;;;19.17;8.30;;;;;;;10.56;98.93;96778.94;5020540;28;20201;-70
2021/10/28 03:33:57;;;;;;;17.60;8.17;;;;;;;10.43;99.09;96778.59;5020039;28;20202;-69
2021/10/28 03:36:38;;;;;;;15.87;7.13;;;;;;;10.78;98.88;96783.59;5019089;28;20221;-69
2021/10/28 03:39:13;;;;;;;15.77;6.37;;;;;;;10.48;100.00;96786.03;5019817;28;20217;-69
2021/10/28 03:41:58;;;;;;;17.53;7.57;;;;;;;10.69;99.15;96779.28;5019939;28;21160;-69
2021/10/28 03:58:31;;;;;;;24.40;7.70;;;;;;;10.53;100.00;96767.91;5019506;28;20232;-69
2021/10/28 04:04:12;;;;;;;13.17;5.67;;;;;;;10.37;100.00;96773.16;5005577;28;20210;-69
2021/10/28 04:07:02;;;;;;;21.07;8.07;;;;;;;10.21;100.00;96775.78;5018315;28;20230;-69
2021/10/28 04:18:04;;;;;;;11.90;5.73;;;;;;;10.44;100.00;96776.81;5018074;28;20279;-69
2021/10/28 04:20:46;;;;;;;17.73;7.80;;;;;;;10.53;100.00;96775.81;5018824;28;20202;-69
2021/10/28 04:28:57;;;;;;;19.70;8.00;;;;;;;10.69;100.00;96762.63;5018373;28;20309;-69
2021/10/28 04:31:25;;;;;;;16.40;6.03;;;;;;;10.60;100.00;96774.16;5017791;28;20321;-69
2021/10/28 04:33:52;;;;;;;15.43;6.53;;;;;;;10.57;100.00;96775.31;5019263;28;20214;-69
2021/10/28 04:36:19;;;;;;;12.17;6.27;;;;;;;10.40;100.00;96778.13;5017759;28;20253;-69
2021/10/28 04:38:46;;;;;;;23.93;7.00;;;;;;;10.28;100.00;96774.13;5018885;28;20256;-69
2021/10/28 04:41:14;;;;;;;15.33;5.93;;;;;;;10.45;100.00;96770.53;5018740;28;20210;-69
2021/10/28 04:43:40;;;;;;;16.00;6.80;;;;;;;10.27;100.00;96772.47;5018032;28;20209;-69
2021/10/28 04:46:07;;;;;;;13.23;5.83;;;;;;;10.09;100.00;96768.34;5017580;28;20316;-69
2021/10/28 04:48:33;;;;;;;15.00;6.97;;;;;;;10.21;100.00;96773.16;5018300;28;20225;-69
2021/10/28 04:51:00;;;;;;;26.70;9.77;;;;;;;10.24;100.00;96764.91;5018511;28;20206;-69
2021/10/28 04:53:28;;;;;;;19.63;7.97;;;;;;;10.32;100.00;96764.91;5018505;28;20580;-69
2021/10/28 04:55:55;;;;;;;14.77;5.47;;;;;;;10.15;100.00;96765.06;5016925;28;20288;-68
2021/10/28 04:58:23;;;;;;;12.17;5.37;;;;;;;10.52;100.00;96761.00;5017308;28;20699;-69
2021/10/28 05:00:50;;;;;;;10.80;5.03;;;;;;;10.34;100.00;96755.88;5014258;28;20202;-69
2021/10/28 05:03:17;;;;;;;11.90;5.33;;;;;;;10.34;99.42;96757.69;5017289;28;20689;-69
2021/10/28 05:05:43;;;;;;;13.40;6.40;;;;;;;10.31;99.82;96754.53;5016533;28;20205;-69
2021/10/28 05:08:10;;;;;;;19.23;5.90;;;;;;;10.39;99.41;96750.94;5018038;28;20240;-69
2021/10/28 05:10:36;;;;;;;16.10;6.27;;;;;;;10.39;99.28;96758.84;5017858;28;20217;-69
2021/10/28 05:13:03;;;;;;;9.00;4.63;;;;;;;10.30;99.36;96751.09;5017394;28;20214;-69
2021/10/28 05:15:30;;;;;;;15.40;6.30;;;;;;;10.60;99.19;96759.19;5017082;28;20580;-69
2021/10/28 05:17:57;;;;;;;13.73;6.97;;;;;;;10.44;98.74;96755.72;5017517;28;20714;-69
2021/10/28 05:20:24;;;;;;;24.37;7.13;;;;;;;10.51;98.39;96754.91;5016860;28;20847;-69
2021/10/28 05:22:50;;;;;;;23.93;8.57;;;;;;;10.41;98.58;96756.03;5017845;28;20701;-69
2021/10/28 05:25:17;;;;;;;13.00;5.57;;;;;;;10.26;99.48;96765.59;5017595;28;20210;-69
2021/10/28 05:27:43;;;;;;;17.60;6.03;;;;;;;10.15;99.87;96763.25;5016987;28;20225;-68
2021/10/28 05:30:11;;;;;;;18.63;7.03;;;;;;;10.35;99.28;96754.06;5017847;28;20216;-69
2021/10/28 05:32:39;;;;;;;18.80;6.57;;;;;;;10.53;98.88;96752.09;5018522;28;20206;-71
2021/10/28 05:35:06;;;;;;;19.83;6.43;;;;;;;10.03;100.00;96758.44;5016744;28;20730;-70
2021/10/28 05:37:32;;;;;;;15.60;6.13;;;;;;;10.28;98.98;96758.31;5016846;28;20217;-70
2021/10/28 05:40:00;;;;;;;18.80;7.97;;;;;;;9.68;100.00;96754.19;5018414;28;20212;-70
2021/10/28 05:42:26;;;;;;;13.30;6.77;;;;;;;9.80;100.00;96758.19;5017638;28;20260;-70
2021/10/28 05:44:53;;;;;;;14.93;6.80;;;;;;;9.85;100.00;96758.53;5017050;28;20209;-70
2021/10/28 05:47:20;;;;;;;11.20;4.37;;;;;;;10.16;99.61;96758.81;5016659;28;20233;-70
2021/10/28 05:49:48;;;;;;;26.03;7.60;;;;;;;10.26;100.00;96759.47;5017323;28;20208;-70
2021/10/28 05:52:16;;;;;;;11.50;4.13;;;;;;;10.11;100.00;96756.66;5017777;28;20237;-71
2021/10/28 05:54:43;;;;;;;14.77;5.17;;;;;;;9.95;100.00;96759.22;5017025;28;20211;-71
2021/10/28 05:57:09;;;;;;;11.47;4.97;;;;;;;10.07;100.00;96765.88;5016701;28;20233;-71
2021/10/28 05:59:36;;;;;;;14.70;6.13;;;;;;;10.24;99.61;96762.28;5016663;28;20202;-71
2021/10/28 06:02:02;;;;;;;16.53;7.57;;;;;;;10.11;100.00;96759.28;5014809;28;20624;-71
2021/10/28 06:04:29;;;;;;;13.40;7.30;;;;;;;10.17;100.00;96771.81;5017210;28;20206;-71
2021/10/28 06:06:56;;;;;;;27.60;6.97;;;;;;;10.22;100.00;96760.78;5015932;28;20225;-71
2021/10/28 06:09:23;;;;;;;16.87;5.73;;;;;;;10.19;99.87;96769.84;5017314;28;20201;-71
2021/10/28 06:11:50;;;;;;;19.03;7.13;;;;;;;10.01;100.00;96770.97;5017020;28;20682;-71
2021/10/28 06:14:22;;;;;;;15.03;5.60;;;;;;;10.26;100.00;96770.00;5016996;28;20206;-70
2021/10/28 06:16:52;;;;;;;20.10;5.90;;;;;;;10.16;99.93;96774.63;5016231;28;20222;-71
2021/10/28 06:19:18;;;;;;;15.90;6.50;;;;;;;10.29;99.56;96769.69;5016722;28;20230;-71
2021/10/28 06:21:45;;;;;;;12.13;6.03;;;;;;;9.74;100.00;96769.34;5016811;28;20259;-71
2021/10/28 06:24:13;;;;;;;25.20;7.10;;;;;;;10.08;100.00;96762.25;5017347;28;20789;-70
2021/10/28 06:26:39;;;;;;;10.00;4.13;;;;;;;9.71;100.00;96767.03;5015296;28;20725;-71
2021/10/28 06:29:06;;;;;;;23.33;6.40;;;;;;;9.81;100.00;96769.53;5017011;28;20777;-71
2021/10/28 06:31:32;;;;;;;21.40;6.07;;;;;;;10.10;99.65;96770.81;5016816;28;20706;-71
2021/10/28 06:34:01;;;;;;;13.33;6.63;;;;;;;9.93;100.00;96769.09;5019837;28;20208;-70
2021/10/28 06:36:30;;;;;;;13.17;5.87;;;;;;;9.66;100.00;96770.31;5019720;28;20240;-71
2021/10/28 06:38:56;;;;;;;16.70;6.07;;;;;;;9.83;100.00;96773.66;5020607;28;20198;-71
2021/10/28 06:41:24;;;;;;;20.53;5.80;;;;;;;10.36;99.47;96764.44;5020747;28;20317;-71
2021/10/28 06:43:50;;;;;;;10.60;4.43;;;;;;;9.76;100.00;96764.75;5021658;28;20206;-71
2021/10/28 06:46:17;;;;;;;14.20;5.97;;;;;;;9.82;99.91;96766.75;5019538;28;20234;-71
2021/10/28 06:48:43;;;;;;;12.07;5.93;;;;;;;10.03;98.68;96754.00;5020364;28;20244;-71
2021/10/28 06:51:11;;;;;;;21.10;7.30;;;;;;;10.32;98.71;96751.75;5020990;28;20202;-71
2021/10/28 06:53:45;;;;;;;14.40;5.40;;;;;;;10.16;97.75;96761.47;5020589;28;20966;-71
2021/10/28 06:56:35;;;;;;;16.50;7.73;;;;;;;10.02;98.34;96762.09;5020037;28;20225;-71
2021/10/28 07:04:30;;;;;;;13.40;5.40;;;;;;;9.82;98.89;96768.56;5020773;28;20388;-71
2021/10/28 07:06:57;;;;;;;14.70;7.37;;;;;;;9.90;98.90;96772.06;5019796;28;20233;-71
2021/10/28 07:09:29;;;;;;;10.73;5.87;;;;;;;9.95;99.01;96771.56;5020000;28;20221;-71
2021/10/28 07:12:06;;;;;;;15.63;5.93;;;;;;;9.96;98.80;96773.25;5019738;28;20237;-71
2021/10/28 07:14:35;;;;;;;17.00;6.90;;;;;;;10.21;98.72;96767.88;5020908;28;20624;-71
2021/10/28 07:17:10;;;;;;;9.50;5.73;;;;;;;9.81;98.72;96774.78;5019019;28;20284;-71
2021/10/28 07:19:55;;;;;;;6.90;3.63;;;;;;;10.09;97.97;96770.97;5020092;28;20288;-71
2021/10/28 07:22:36;;;;;;;10.63;5.37;;;;;;;9.90;98.58;96772.06;5018277;28;20202;-71
2021/10/28 07:30:39;;;;;;;15.53;5.73;;;;;;;10.10;99.28;96765.53;5015899;28;20292;-71
2021/10/28 07:33:12;;;;;;;8.87;5.57;;;;;;;10.03;97.58;96769.81;5019616;28;20205;-71
2021/10/28 07:35:57;;;;;;;11.60;4.80;;;;;;;9.92;97.63;96772.69;5018774;28;20220;-71
2021/10/28 07:55:09;;;;;;;13.17;5.03;;;;;;;10.33;95.45;96750.75;5018840;28;20249;-71
2021/10/28 07:57:47;;;;;;;10.40;4.93;;;;;;;10.29;96.84;96751.28;5018290;28;20737;-71
2021/10/28 08:06:24;;;;;;;14.70;5.03;;;;;;;10.46;94.53;96746.66;5011484;28;20897;-71
2021/10/28 08:17:38;;;;;;;12.33;5.07;;;;;;;10.86;93.60;96740.53;4956973;28;20263;-71
2021/10/28 08:20:11;;;;;;;11.10;5.20;;;;;;;11.23;93.40;96739.00;4957572;28;20207;-71
2021/10/28 08:22:40;;;;;;;9.47;5.67;;;;;;;11.07;92.50;96737.25;4995061;28;20261;-71
2021/10/28 08:30:35;;;;;;;10.07;5.30;;;;;;;11.07;92.60;96731.97;5018251;28;20674;-71
2021/10/28 08:33:03;;;;;;;10.60;5.80;;;;;;;11.32;92.00;96738.00;5018972;28;20202;-71
2021/10/28 08:35:32;;;;;;;12.23;5.57;;;;;;;11.39;93.56;96731.88;5017888;28;20317;-71
2021/10/28 08:38:00;;;;;;;12.77;5.53;;;;;;;11.14;91.09;96732.94;5018630;28;20222;-71
2021/10/28 08:40:26;;;;;;;11.90;5.47;;;;;;;11.21;92.49;96725.97;5017936;28;20324;-71
2021/10/28 08:42:53;;;;;;;11.17;4.93;;;;;;;11.44;92.13;96724.25;5018839;28;20681;-71
2021/10/28 08:45:21;;;;;;;12.73;6.20;;;;;;;11.57;90.00;96719.31;5018998;28;20197;-71
2021/10/28 08:47:52;;;;;;;13.47;6.37;;;;;;;11.66;90.42;96713.81;5019054;28;20269;-71
2021/10/28 08:50:24;;;;;;;12.93;6.17;;;;;;;11.64;92.03;96712.34;5018339;28;20269;-71
2021/10/28 08:55:39;;;;;;;12.27;5.23;;;;;;;11.77;90.22;96705.53;5003337;28;20201;-71
2021/10/28 09:26:22;;;;;;;10.17;5.93;;;;;;;12.09;89.68;96689.47;5017259;28;20240;-70
2021/10/28 09:29:03;;;;;;;11.20;5.10;;;;;;;12.27;86.10;96682.91;5017679;28;20367;-71
2021/10/28 09:31:33;;;;;;;15.50;5.87;;;;;;;12.04;87.35;96686.53;5016919;28;20209;-71
2021/10/28 09:34:13;;;;;;;14.77;5.63;;;;;;;12.21;88.32;96683.59;5018156;28;20206;-71
2021/10/28 09:45:33;;;;;;;10.97;5.00;;;;;;;12.66;85.33;96683.56;5017808;28;20604;-70
2021/10/28 09:48:08;;;;;;;8.63;5.03;;;;;;;12.23;85.81;96686.06;5017018;28;20221;-70
2021/10/28 09:50:51;;;;;;;10.30;6.03;;;;;;;12.40;86.22;96677.03;5017934;28;20201;-71
2021/10/28 09:53:27;;;;;;;12.43;4.50;;;;;;;12.05;88.28;96676.78;5016624;28;20213;-71
2021/10/28 09:58:52;;;;;;;15.13;5.03;;;;;;;12.27;86.19;96674.97;4955560;28;20244;-71
2021/10/28 10:01:33;;;;;;;14.27;5.20;;;;;;;12.96;86.67;96674.72;5000172;28;20206;-71
2021/10/28 10:04:03;;;;;;;16.07;5.47;;;;;;;12.68;84.57;96681.56;5017350;28;20208;-71
2021/10/28 10:06:36;;;;;;;10.23;5.13;;;;;;;13.05;84.21;96671.81;5016348;28;20275;-71
2021/10/28 10:09:03;;;;;;;13.80;5.80;;;;;;;12.96;84.69;96667.59;5015773;28;20221;-71
2021/10/28 10:11:29;;;;;;;21.97;6.90;;;;;;;13.02;84.18;96671.34;5017260;28;20201;-71
2021/10/28 10:13:59;;;;;;;12.90;5.77;;;;;;;13.43;84.17;96668.88;5017109;28;20205;-71
2021/10/28 10:16:25;;;;;;;13.90;5.97;;;;;;;13.00;84.59;96673.38;5016035;28;20232;-71
2021/10/28 10:18:52;;;;;;;13.17;5.47;;;;;;;13.38;82.87;96664.31;5016622;28;20317;-71
2021/10/28 10:21:29;;;;;;;13.73;5.40;;;;;;;13.53;82.61;96668.59;5017524;28;20213;-71
2021/10/28 10:24:15;;;;;;;8.97;5.33;;;;;;;13.53;81.59;96664.13;5017150;28;20648;-71
2021/10/28 11:28:31;;;;;;;16.17;5.85;;;;;;;14.42;78.87;96611.50;5017312;28;20252;-71
2021/10/28 11:31:31;;;;;;;14.32;5.13;;;;;;;14.53;78.94;96600.38;5017801;28;20220;-71
2021/10/28 12:52:43;;;;;;;12.27;4.95;;;;;;;14.82;77.54;96516.91;5019408;28;20220;-71
2021/10/28 13:03:51;;;;;;;11.00;4.45;;;;;;;15.93;76.78;96498.47;5008041;28;20289;-71
2021/10/28 13:06:32;;;;;;;15.15;5.55;;;;;;;16.00;74.52;96496.66;5017002;28;20229;-71
2021/10/28 13:50:19;;;;;;;14.15;6.30;;;;;;;15.83;75.68;96444.09;5016158;28;20344;-71
2021/10/28 13:53:14;;;;;;;14.52;5.22;;;;;;;15.68;75.90;96453.28;5017890;28;20267;-71
2021/10/28 13:58:49;;;;;;;13.73;4.65;;;;;;;15.75;75.46;96451.47;5013353;28;20402;-71
2021/10/28 14:31:49;;;;;;;14.25;6.38;;;;;;;15.74;76.92;96447.19;5093794;28;20529;-71
2021/10/28 15:29:42;;;;;;;13.73;4.93;;;;;;;14.94;83.58;96418.97;5093292;28;20259;-72
2021/10/28 15:35:08;;;;;;;13.15;5.03;;;;;;;14.65;84.88;96412.16;5074621;28;20251;-71
2021/10/28 15:37:54;;;;;;;12.65;4.82;;;;;;;14.53;85.92;96412.91;5078002;28;20215;-72
2021/10/28 15:40:29;;;;;;;9.65;5.85;;;;;;;14.42;87.08;96412.63;5079387;28;20316;-72
2021/10/28 15:54:37;;;;;;;9.05;4.55;;;;;;;13.76;89.69;96407.06;5053581;28;20224;-73
2021/10/28 15:57:17;;;;;;;10.52;4.40;;;;;;;13.68;89.06;96410.69;5049359;28;20216;-71
2021/10/28 16:00:06;;;;;;;11.35;4.88;;;;;;;13.52;89.49;96404.84;5053893;28;20797;-71
2021/10/28 16:22:01;;;;;;;16.17;4.73;;;;;;;12.19;95.24;96402.91;5053169;28;20207;-73
2021/10/28 16:24:31;;;;;;;9.73;5.13;;;;;;;12.49;94.96;96407.16;5051830;28;20200;-71
2021/10/28 16:26:59;;;;;;;8.83;4.07;;;;;;;12.17;95.89;96402.28;5049071;28;21187;-71
2021/10/28 16:29:27;;;;;;;13.67;6.60;;;;;;;12.13;96.12;96404.63;5049901;28;20216;-71
2021/10/28 16:31:54;;;;;;;14.57;6.77;;;;;;;12.09;95.94;96409.44;5053860;28;20201;-71
2021/10/28 16:34:22;;;;;;;21.13;8.27;;;;;;;12.01;95.65;96404.25;5051816;28;20208;-71
2021/10/28 16:36:49;;;;;;;10.20;5.63;;;;;;;11.96;95.18;96405.81;5050561;28;20213;-71
2021/10/28 16:39:17;;;;;;;14.57;5.23;;;;;;;11.77;95.44;96401.06;5051819;28;21091;-71
2021/10/28 16:41:47;;;;;;;15.90;6.67;;;;;;;11.84;96.46;96400.16;5052042;28;20197;-71
2021/10/28 16:44:15;;;;;;;46.37;6.23;;;;;;;11.63;96.13;96400.06;5051940;28;20208;-69
2021/10/28 16:46:42;;;;;;;23.17;7.47;;;;;;;11.63;97.12;96397.41;5050869;28;20231;-69
2021/10/28 16:49:11;;;;;;;8.40;5.37;;;;;;;11.63;96.61;96400.06;5051421;28;20255;-69
2021/10/28 16:51:37;;;;;;;11.33;6.40;;;;;;;11.32;97.03;96395.84;5050765;28;20315;-69
2021/10/28 16:54:04;;;;;;;21.20;5.90;;;;;;;11.37;97.38;96401.41;5052074;28;20669;-69
2021/10/28 16:56:30;;;;;;;12.53;5.27;;;;;;;11.41;96.66;96397.41;5050547;28;20225;-69
2021/10/28 16:58:58;;;;;;;15.17;7.07;;;;;;;11.34;96.31;96395.66;5048225;28;20394;-70
2021/10/28 17:01:26;;;;;;;18.00;6.70;;;;;;;11.18;97.45;96393.97;5044620;28;20197;-70
2021/10/28 17:03:53;;;;;;;14.47;6.33;;;;;;;11.02;97.39;96406.44;5038634;28;20567;-69
2021/10/28 17:06:21;;;;;;;12.17;5.67;;;;;;;10.78;99.25;96404.00;5036878;28;20229;-70
2021/10/28 17:08:48;;;;;;;13.83;6.10;;;;;;;10.94;99.67;96409.97;5038495;28;20247;-69
2021/10/28 17:11:16;;;;;;;11.83;4.93;;;;;;;10.78;99.92;96413.69;5038236;28;20848;-71
2021/10/28 17:13:44;;;;;;;13.50;5.63;;;;;;;10.76;100.00;96415.72;5037689;28;20201;-69
2021/10/28 17:16:11;;;;;;;9.77;5.23;;;;;;;10.85;100.00;96409.38;5036985;28;20315;-69
2021/10/28 17:18:38;;;;;;;10.30;5.47;;;;;;;10.65;100.00;96413.44;5038166;28;20202;-69
2021/10/28 17:21:06;;;;;;;16.80;6.73;;;;;;;10.69;100.00;96423.50;5038162;28;20197;-70
2021/10/28 17:23:36;;;;;;;11.63;5.47;;;;;;;10.68;100.00;96416.56;5037622;28;20205;-69
2021/10/28 17:26:04;;;;;;;11.60;5.37;;;;;;;10.74;99.54;96421.13;5037387;28;20197;-69
2021/10/28 17:28:31;;;;;;;18.17;7.13;;;;;;;10.80;99.10;96414.34;5036397;28;20212;-69
2021/10/28 17:30:57;;;;;;;10.03;5.03;;;;;;;10.74;97.89;96420.31;5037777;28;20593;-70
2021/10/28 17:33:25;;;;;;;12.47;6.20;;;;;;;10.70;98.23;96425.09;5038173;28;20207;-69
2021/10/28 17:35:52;;;;;;;11.17;5.47;;;;;;;10.63;97.63;96428.63;5036904;28;20255;-70
2021/10/28 17:38:19;;;;;;;11.50;5.83;;;;;;;10.71;96.39;96431.22;5037261;28;20201;-70
2021/10/28 17:40:46;;;;;;;18.43;5.60;;;;;;;10.57;94.91;96432.75;5038087;28;20231;-70
2021/10/28 17:43:13;;;;;;;13.33;6.60;;;;;;;10.53;94.10;96436.72;5037218;28;20212;-69
2021/10/28 17:45:41;;;;;;;16.00;6.87;;;;;;;10.49;95.33;96445.16;5036883;28;20292;-70
2021/10/28 17:48:08;;;;;;;13.00;5.77;;;;;;;10.48;94.43;96449.59;5037142;28;20232;-70
2021/10/28 17:50:38;;;;;;;20.10;6.23;;;;;;;10.57;95.53;96447.75;5037580;28;20217;-70
2021/10/28 17:53:05;;;;;;;13.57;5.87;;;;;;;10.21;95.22;96451.84;5037350;28;20208;-69
2021/10/28 17:55:32;;;;;;;16.10;6.47;;;;;;;10.30;94.68;96455.25;5033973;28;20205;-70
2021/10/28 17:57:58;;;;;;;9.93;6.23;;;;;;;10.40;94.33;96451.47;5034745;28;20221;-71
2021/10/28 18:00:25;;;;;;;8.80;5.17;;;;;;;10.19;93.40;96453.00;5037159;28;20677;-69
2021/10/28 18:02:52;;;;;;;11.27;5.17;;;;;;;10.22;93.12;96458.75;5037240;28;20211;-69
2021/10/28 18:05:19;;;;;;;20.17;8.70;;;;;;;10.24;93.24;96451.50;5037429;28;20277;-69
2021/10/28 18:07:48;;;;;;;12.70;6.57;;;;;;;10.48;93.25;96456.69;5035797;28;20225;-69
2021/10/28 18:10:16;;;;;;;11.57;5.67;;;;;;;10.35;93.89;96459.03;5036574;28;20225;-69
2021/10/28 18:12:43;;;;;;;17.03;7.47;;;;;;;10.08;91.26;96456.00;5036435;28;20205;-69
2021/10/28 18:15:10;;;;;;;17.53;5.17;;;;;;;10.29;91.45;96451.00;5036832;28;20255;-69
2021/10/28 18:17:37;;;;;;;9.63;5.30;;;;;;;10.08;91.56;96451.56;5036280;28;20227;-69
2021/10/28 18:20:06;;;;;;;9.97;5.87;;;;;;;10.24;91.46;96454.13;5036617;28;20201;-71
2021/10/28 18:22:37;;;;;;;11.00;5.37;;;;;;;10.18;90.86;96451.34;5036540;28;20208;-70
2021/10/28 18:25:06;;;;;;;11.23;5.37;;;;;;;10.14;91.99;96453.50;5036758;28;20209;-70
2021/10/28 18:27:33;;;;;;;6.67;4.20;;;;;;;9.83;94.56;96447.28;5035912;28;20232;-70
2021/10/28 18:30:00;;;;;;;15.17;5.57;;;;;;;9.87;95.70;96448.59;5036462;28;20221;-70
2021/10/28 18:32:28;;;;;;;10.00;5.57;;;;;;;9.89;94.65;96451.06;5036434;28;20205;-69
2021/10/28 18:34:54;;;;;;;12.23;5.70;;;;;;;9.76;93.65;96443.69;5037379;28;20243;-70
2021/10/28 18:37:21;;;;;;;8.37;4.37;;;;;;;9.94;92.63;96438.22;5036351;28;20228;-69
2021/10/28 18:39:50;;;;;;;18.63;9.17;;;;;;;9.76;94.18;96443.69;5037047;28;20669;-69
2021/10/28 18:42:18;;;;;;;12.57;6.00;;;;;;;10.02;94.20;96440.88;5035924;28;20209;-69
2021/10/28 18:44:45;;;;;;;16.17;5.07;;;;;;;9.59;95.48;96443.88;5035174;28;20201;-70
2021/10/28 18:47:12;;;;;;;8.77;4.73;;;;;;;9.68;92.88;96436.81;5034511;28;20319;-70
2021/10/28 18:49:39;;;;;;;12.00;5.93;;;;;;;9.72;93.51;96436.28;5036632;28;20296;-70
2021/10/28 18:52:06;;;;;;;15.50;6.07;;;;;;;9.74;92.97;96442.22;5035047;28;20590;-69
2021/10/28 18:54:32;;;;;;;16.07;6.53;;;;;;;9.74;92.61;96437.78;5035371;28;20241;-69
2021/10/28 18:56:59;;;;;;;13.03;6.10;;;;;;;9.67;91.41;96435.16;5034325;28;20705;-69
2021/10/28 18:59:27;;;;;;;12.20;5.53;;;;;;;9.83;90.54;96435.94;5037174;28;20197;-69
2021/10/28 19:01:55;;;;;;;9.37;5.73;;;;;;;9.53;93.07;96433.19;5036730;28;20193;-70
2021/10/28 19:04:22;;;;;;;10.47;4.63;;;;;;;9.51;92.07;96419.38;5037001;28;20221;-70
2021/10/28 19:06:48;;;;;;;9.73;4.83;;;;;;;9.53;91.60;96425.31;5036359;28;20594;-70